sensor_id;sensor_type;location;lat;lon;timestamp;P1;durP1;ratioP1;P2;durP2;ratioP2
45490;SDS011;31237;45.586;13.782;2023-07-09T00:01:19;7.07;;;5.15;;
45490;SDS011;31237;45.586;13.782;2023-07-09T00:03:45;8.40;;;6.22;;
45490;SDS011;31237;45.586;13.782;2023-07-09T00:06:16;8.95;;;6.05;;
45490;SDS011;31237;45.586;13.782;2023-07-09T00:08:43;9.95;;;5.70;;
45490;SDS011;31237;45.586;13.782;2023-07-09T00:11:12;9.60;;;6.07;;
45490;SDS011;31237;45.586;13.782;2023-07-09T00:13:39;13.45;;;5.70;;
45490;SDS011;31237;45.586;13.782;2023-07-09T00:16:11;7.85;;;5.18;;
45490;SDS011;31237;45.586;13.782;2023-07-09T00:18:41;7.90;;;5.63;;
45490;SDS011;31237;45.586;13.782;2023-07-09T00:21:08;8.75;;;6.30;;
45490;SDS011;31237;45.586;13.782;2023-07-09T00:23:33;8.82;;;5.78;;
45490;SDS011;31237;45.586;13.782;2023-07-09T00:25:59;9.07;;;5.97;;
45490;SDS011;31237;45.586;13.782;2023-07-09T00:28:28;8.23;;;5.90;;
45490;SDS011;31237;45.586;13.782;2023-07-09T00:30:53;7.68;;;5.57;;
45490;SDS011;31237;45.586;13.782;2023-07-09T00:33:19;8.38;;;5.93;;
45490;SDS011;31237;45.586;13.782;2023-07-09T00:35:46;9.18;;;5.60;;
45490;SDS011;31237;45.586;13.782;2023-07-09T00:38:14;7.85;;;5.70;;
45490;SDS011;31237;45.586;13.782;2023-07-09T00:40:46;7.88;;;5.63;;
45490;SDS011;31237;45.586;13.782;2023-07-09T00:43:24;6.97;;;5.55;;
45490;SDS011;31237;45.586;13.782;2023-07-09T00:46:16;6.78;;;5.38;;
45490;SDS011;31237;45.586;13.782;2023-07-09T00:51:24;7.85;;;5.10;;
45490;SDS011;31237;45.586;13.782;2023-07-09T00:53:54;7.10;;;5.78;;
45490;SDS011;31237;45.586;13.782;2023-07-09T00:56:26;6.85;;;5.00;;
45490;SDS011;31237;45.586;13.782;2023-07-09T00:58:59;7.05;;;5.22;;
45490;SDS011;31237;45.586;13.782;2023-07-09T01:01:29;7.82;;;4.95;;
45490;SDS011;31237;45.586;13.782;2023-07-09T01:03:56;7.95;;;5.50;;
45490;SDS011;31237;45.586;13.782;2023-07-09T01:06:28;6.90;;;4.82;;
45490;SDS011;31237;45.586;13.782;2023-07-09T01:09:00;6.43;;;4.45;;
45490;SDS011;31237;45.586;13.782;2023-07-09T01:11:28;7.10;;;4.68;;
45490;SDS011;31237;45.586;13.782;2023-07-09T01:13:55;6.75;;;4.57;;
45490;SDS011;31237;45.586;13.782;2023-07-09T01:16:25;7.50;;;4.50;;
45490;SDS011;31237;45.586;13.782;2023-07-09T01:18:53;6.30;;;4.70;;
45490;SDS011;31237;45.586;13.782;2023-07-09T01:21:19;7.13;;;4.55;;
45490;SDS011;31237;45.586;13.782;2023-07-09T01:23:46;7.40;;;4.88;;
45490;SDS011;31237;45.586;13.782;2023-07-09T01:26:14;6.72;;;5.32;;
45490;SDS011;31237;45.586;13.782;2023-07-09T01:28:42;5.85;;;4.75;;
45490;SDS011;31237;45.586;13.782;2023-07-09T01:31:12;7.57;;;4.55;;
45490;SDS011;31237;45.586;13.782;2023-07-09T01:33:40;7.22;;;4.88;;
45490;SDS011;31237;45.586;13.782;2023-07-09T01:36:10;6.25;;;4.45;;
45490;SDS011;31237;45.586;13.782;2023-07-09T01:38:38;6.85;;;5.20;;
45490;SDS011;31237;45.586;13.782;2023-07-09T01:41:05;6.85;;;4.38;;
45490;SDS011;31237;45.586;13.782;2023-07-09T01:43:32;7.43;;;4.22;;
45490;SDS011;31237;45.586;13.782;2023-07-09T01:45:59;5.93;;;4.25;;
45490;SDS011;31237;45.586;13.782;2023-07-09T01:48:26;5.88;;;3.88;;
45490;SDS011;31237;45.586;13.782;2023-07-09T01:50:52;6.90;;;4.80;;
45490;SDS011;31237;45.586;13.782;2023-07-09T01:53:19;8.48;;;4.38;;
45490;SDS011;31237;45.586;13.782;2023-07-09T01:55:49;6.32;;;3.92;;
45490;SDS011;31237;45.586;13.782;2023-07-09T01:58:18;8.88;;;4.35;;
45490;SDS011;31237;45.586;13.782;2023-07-09T02:00:44;7.55;;;3.92;;
45490;SDS011;31237;45.586;13.782;2023-07-09T02:03:10;6.40;;;3.80;;
45490;SDS011;31237;45.586;13.782;2023-07-09T02:05:36;6.93;;;4.30;;
45490;SDS011;31237;45.586;13.782;2023-07-09T02:08:02;6.63;;;4.30;;
45490;SDS011;31237;45.586;13.782;2023-07-09T02:10:29;6.90;;;4.50;;
45490;SDS011;31237;45.586;13.782;2023-07-09T02:12:54;6.03;;;4.18;;
45490;SDS011;31237;45.586;13.782;2023-07-09T02:15:20;6.05;;;4.72;;
45490;SDS011;31237;45.586;13.782;2023-07-09T02:17:46;6.90;;;5.70;;
45490;SDS011;31237;45.586;13.782;2023-07-09T02:20:12;7.15;;;5.43;;
45490;SDS011;31237;45.586;13.782;2023-07-09T02:22:39;6.53;;;5.32;;
45490;SDS011;31237;45.586;13.782;2023-07-09T02:25:06;6.97;;;4.95;;
45490;SDS011;31237;45.586;13.782;2023-07-09T02:27:33;7.43;;;6.38;;
45490;SDS011;31237;45.586;13.782;2023-07-09T02:30:00;6.70;;;5.10;;
45490;SDS011;31237;45.586;13.782;2023-07-09T02:32:27;6.50;;;4.60;;
45490;SDS011;31237;45.586;13.782;2023-07-09T02:34:53;6.85;;;4.95;;
45490;SDS011;31237;45.586;13.782;2023-07-09T02:37:21;7.32;;;5.13;;
45490;SDS011;31237;45.586;13.782;2023-07-09T02:39:51;6.43;;;4.50;;
45490;SDS011;31237;45.586;13.782;2023-07-09T02:42:18;6.47;;;4.32;;
45490;SDS011;31237;45.586;13.782;2023-07-09T02:44:45;7.68;;;5.20;;
45490;SDS011;31237;45.586;13.782;2023-07-09T02:47:11;7.70;;;5.00;;
45490;SDS011;31237;45.586;13.782;2023-07-09T02:49:38;7.25;;;5.03;;
45490;SDS011;31237;45.586;13.782;2023-07-09T02:52:07;7.15;;;4.95;;
45490;SDS011;31237;45.586;13.782;2023-07-09T02:54:33;6.32;;;4.90;;
45490;SDS011;31237;45.586;13.782;2023-07-09T02:56:59;7.05;;;4.72;;
45490;SDS011;31237;45.586;13.782;2023-07-09T02:59:25;7.00;;;5.05;;
45490;SDS011;31237;45.586;13.782;2023-07-09T03:01:52;6.15;;;4.80;;
45490;SDS011;31237;45.586;13.782;2023-07-09T03:04:17;7.10;;;5.15;;
45490;SDS011;31237;45.586;13.782;2023-07-09T03:06:45;6.43;;;4.78;;
45490;SDS011;31237;45.586;13.782;2023-07-09T03:09:12;6.75;;;5.25;;
45490;SDS011;31237;45.586;13.782;2023-07-09T03:11:38;7.93;;;4.72;;
45490;SDS011;31237;45.586;13.782;2023-07-09T03:14:03;7.40;;;4.95;;
45490;SDS011;31237;45.586;13.782;2023-07-09T03:16:30;8.18;;;6.05;;
45490;SDS011;31237;45.586;13.782;2023-07-09T03:18:57;7.65;;;5.40;;
45490;SDS011;31237;45.586;13.782;2023-07-09T03:21:24;7.90;;;6.35;;
45490;SDS011;31237;45.586;13.782;2023-07-09T03:23:52;6.80;;;5.82;;
45490;SDS011;31237;45.586;13.782;2023-07-09T03:26:18;9.13;;;5.43;;
45490;SDS011;31237;45.586;13.782;2023-07-09T03:28:44;8.18;;;5.88;;
45490;SDS011;31237;45.586;13.782;2023-07-09T03:31:10;9.77;;;5.45;;
45490;SDS011;31237;45.586;13.782;2023-07-09T03:33:36;6.25;;;4.47;;
45490;SDS011;31237;45.586;13.782;2023-07-09T03:36:02;7.47;;;4.60;;
45490;SDS011;31237;45.586;13.782;2023-07-09T03:38:29;8.57;;;5.10;;
45490;SDS011;31237;45.586;13.782;2023-07-09T03:40:55;6.90;;;4.57;;
45490;SDS011;31237;45.586;13.782;2023-07-09T03:43:21;8.95;;;4.40;;
45490;SDS011;31237;45.586;13.782;2023-07-09T03:45:47;6.85;;;4.75;;
45490;SDS011;31237;45.586;13.782;2023-07-09T03:48:14;7.60;;;5.07;;
45490;SDS011;31237;45.586;13.782;2023-07-09T03:50:41;6.03;;;4.22;;
45490;SDS011;31237;45.586;13.782;2023-07-09T03:53:08;7.50;;;5.00;;
45490;SDS011;31237;45.586;13.782;2023-07-09T03:55:34;7.60;;;4.90;;
45490;SDS011;31237;45.586;13.782;2023-07-09T03:58:00;7.68;;;4.75;;
45490;SDS011;31237;45.586;13.782;2023-07-09T04:00:27;7.60;;;4.75;;
45490;SDS011;31237;45.586;13.782;2023-07-09T04:02:53;7.32;;;4.53;;
45490;SDS011;31237;45.586;13.782;2023-07-09T04:05:21;7.53;;;4.18;;
45490;SDS011;31237;45.586;13.782;2023-07-09T04:07:48;8.20;;;4.70;;
45490;SDS011;31237;45.586;13.782;2023-07-09T04:10:14;6.75;;;4.22;;
45490;SDS011;31237;45.586;13.782;2023-07-09T04:12:40;7.50;;;4.43;;
45490;SDS011;31237;45.586;13.782;2023-07-09T04:15:06;7.88;;;5.15;;
45490;SDS011;31237;45.586;13.782;2023-07-09T04:17:32;7.38;;;5.10;;
45490;SDS011;31237;45.586;13.782;2023-07-09T04:19:58;8.43;;;4.80;;
45490;SDS011;31237;45.586;13.782;2023-07-09T04:22:24;7.57;;;4.97;;
45490;SDS011;31237;45.586;13.782;2023-07-09T04:24:50;8.52;;;5.43;;
45490;SDS011;31237;45.586;13.782;2023-07-09T04:27:17;7.22;;;4.75;;
45490;SDS011;31237;45.586;13.782;2023-07-09T04:29:43;7.05;;;4.93;;
45490;SDS011;31237;45.586;13.782;2023-07-09T04:32:13;7.15;;;4.93;;
45490;SDS011;31237;45.586;13.782;2023-07-09T04:34:39;9.32;;;5.28;;
45490;SDS011;31237;45.586;13.782;2023-07-09T04:37:06;8.55;;;5.07;;
45490;SDS011;31237;45.586;13.782;2023-07-09T04:39:34;8.20;;;5.10;;
45490;SDS011;31237;45.586;13.782;2023-07-09T04:41:59;7.97;;;5.40;;
45490;SDS011;31237;45.586;13.782;2023-07-09T04:44:25;11.52;;;5.68;;
45490;SDS011;31237;45.586;13.782;2023-07-09T04:46:51;7.65;;;5.35;;
45490;SDS011;31237;45.586;13.782;2023-07-09T04:49:17;7.57;;;5.78;;
45490;SDS011;31237;45.586;13.782;2023-07-09T04:51:43;6.90;;;5.05;;
45490;SDS011;31237;45.586;13.782;2023-07-09T04:54:08;8.23;;;4.75;;
45490;SDS011;31237;45.586;13.782;2023-07-09T04:56:34;8.82;;;5.50;;
45490;SDS011;31237;45.586;13.782;2023-07-09T04:59:01;9.35;;;6.75;;
45490;SDS011;31237;45.586;13.782;2023-07-09T05:01:27;8.80;;;4.82;;
45490;SDS011;31237;45.586;13.782;2023-07-09T05:03:53;8.02;;;5.55;;
45490;SDS011;31237;45.586;13.782;2023-07-09T05:06:19;8.07;;;5.07;;
45490;SDS011;31237;45.586;13.782;2023-07-09T05:08:46;9.75;;;5.35;;
45490;SDS011;31237;45.586;13.782;2023-07-09T05:11:13;11.00;;;5.45;;
45490;SDS011;31237;45.586;13.782;2023-07-09T05:13:39;8.32;;;7.03;;
45490;SDS011;31237;45.586;13.782;2023-07-09T05:16:05;7.68;;;5.43;;
45490;SDS011;31237;45.586;13.782;2023-07-09T05:18:31;9.48;;;6.53;;
45490;SDS011;31237;45.586;13.782;2023-07-09T05:20:57;7.63;;;5.20;;
45490;SDS011;31237;45.586;13.782;2023-07-09T05:23:24;6.93;;;5.20;;
45490;SDS011;31237;45.586;13.782;2023-07-09T05:26:00;8.52;;;5.53;;
45490;SDS011;31237;45.586;13.782;2023-07-09T05:28:27;7.38;;;4.97;;
45490;SDS011;31237;45.586;13.782;2023-07-09T05:30:54;7.53;;;4.97;;
45490;SDS011;31237;45.586;13.782;2023-07-09T05:33:20;9.88;;;4.63;;
45490;SDS011;31237;45.586;13.782;2023-07-09T05:35:46;8.20;;;5.93;;
45490;SDS011;31237;45.586;13.782;2023-07-09T05:38:13;8.07;;;5.78;;
45490;SDS011;31237;45.586;13.782;2023-07-09T05:40:40;9.68;;;5.68;;
45490;SDS011;31237;45.586;13.782;2023-07-09T05:43:07;8.43;;;5.57;;
45490;SDS011;31237;45.586;13.782;2023-07-09T05:45:33;13.10;;;6.28;;
45490;SDS011;31237;45.586;13.782;2023-07-09T05:47:59;5.85;;;4.07;;
45490;SDS011;31237;45.586;13.782;2023-07-09T05:50:25;7.68;;;5.63;;
45490;SDS011;31237;45.586;13.782;2023-07-09T05:52:52;8.90;;;7.90;;
45490;SDS011;31237;45.586;13.782;2023-07-09T05:55:18;7.90;;;6.95;;
45490;SDS011;31237;45.586;13.782;2023-07-09T05:57:43;7.07;;;5.00;;
45490;SDS011;31237;45.586;13.782;2023-07-09T06:00:10;6.90;;;4.22;;
45490;SDS011;31237;45.586;13.782;2023-07-09T06:02:37;7.43;;;5.13;;
45490;SDS011;31237;45.586;13.782;2023-07-09T06:05:03;10.45;;;4.78;;
45490;SDS011;31237;45.586;13.782;2023-07-09T06:07:30;6.97;;;5.13;;
45490;SDS011;31237;45.586;13.782;2023-07-09T06:09:56;9.95;;;5.03;;
45490;SDS011;31237;45.586;13.782;2023-07-09T06:12:22;7.25;;;4.80;;
45490;SDS011;31237;45.586;13.782;2023-07-09T06:14:48;7.75;;;4.80;;
45490;SDS011;31237;45.586;13.782;2023-07-09T06:17:14;7.45;;;6.13;;
45490;SDS011;31237;45.586;13.782;2023-07-09T06:19:39;8.13;;;5.72;;
45490;SDS011;31237;45.586;13.782;2023-07-09T06:22:06;6.82;;;4.80;;
45490;SDS011;31237;45.586;13.782;2023-07-09T06:24:31;7.07;;;4.72;;
45490;SDS011;31237;45.586;13.782;2023-07-09T06:26:57;6.82;;;4.93;;
45490;SDS011;31237;45.586;13.782;2023-07-09T06:29:24;7.55;;;5.07;;
45490;SDS011;31237;45.586;13.782;2023-07-09T06:31:50;6.18;;;4.40;;
45490;SDS011;31237;45.586;13.782;2023-07-09T06:34:16;7.57;;;5.15;;
45490;SDS011;31237;45.586;13.782;2023-07-09T06:36:42;8.23;;;4.95;;
45490;SDS011;31237;45.586;13.782;2023-07-09T06:39:08;7.43;;;5.18;;
45490;SDS011;31237;45.586;13.782;2023-07-09T06:41:33;6.32;;;4.38;;
45490;SDS011;31237;45.586;13.782;2023-07-09T06:44:04;6.53;;;4.63;;
45490;SDS011;31237;45.586;13.782;2023-07-09T06:46:34;7.05;;;4.95;;
45490;SDS011;31237;45.586;13.782;2023-07-09T06:49:01;8.98;;;5.00;;
45490;SDS011;31237;45.586;13.782;2023-07-09T06:51:30;6.82;;;4.90;;
45490;SDS011;31237;45.586;13.782;2023-07-09T06:53:56;6.28;;;4.63;;
45490;SDS011;31237;45.586;13.782;2023-07-09T06:56:23;8.23;;;5.30;;
45490;SDS011;31237;45.586;13.782;2023-07-09T06:58:50;8.35;;;5.43;;
45490;SDS011;31237;45.586;13.782;2023-07-09T07:01:15;8.00;;;5.82;;
45490;SDS011;31237;45.586;13.782;2023-07-09T07:03:41;7.20;;;4.63;;
45490;SDS011;31237;45.586;13.782;2023-07-09T07:06:07;7.47;;;4.80;;
45490;SDS011;31237;45.586;13.782;2023-07-09T07:08:33;7.85;;;5.13;;
45490;SDS011;31237;45.586;13.782;2023-07-09T07:11:00;7.35;;;5.07;;
45490;SDS011;31237;45.586;13.782;2023-07-09T07:13:29;9.52;;;5.40;;
45490;SDS011;31237;45.586;13.782;2023-07-09T07:15:56;9.30;;;6.20;;
45490;SDS011;31237;45.586;13.782;2023-07-09T07:18:22;7.53;;;5.47;;
45490;SDS011;31237;45.586;13.782;2023-07-09T07:20:48;7.90;;;5.45;;
45490;SDS011;31237;45.586;13.782;2023-07-09T07:23:15;8.20;;;5.30;;
45490;SDS011;31237;45.586;13.782;2023-07-09T07:25:41;8.43;;;5.82;;
45490;SDS011;31237;45.586;13.782;2023-07-09T07:28:07;7.13;;;5.03;;
45490;SDS011;31237;45.586;13.782;2023-07-09T07:30:32;8.07;;;5.60;;
45490;SDS011;31237;45.586;13.782;2023-07-09T07:32:58;6.72;;;5.53;;
45490;SDS011;31237;45.586;13.782;2023-07-09T07:35:24;8.60;;;5.63;;
45490;SDS011;31237;45.586;13.782;2023-07-09T07:37:50;8.32;;;6.10;;
45490;SDS011;31237;45.586;13.782;2023-07-09T07:40:15;10.90;;;5.82;;
45490;SDS011;31237;45.586;13.782;2023-07-09T07:42:41;8.10;;;5.30;;
45490;SDS011;31237;45.586;13.782;2023-07-09T07:45:07;7.88;;;5.65;;
45490;SDS011;31237;45.586;13.782;2023-07-09T07:47:34;8.13;;;5.53;;
45490;SDS011;31237;45.586;13.782;2023-07-09T07:50:00;8.00;;;5.60;;
45490;SDS011;31237;45.586;13.782;2023-07-09T07:52:27;8.55;;;6.10;;
45490;SDS011;31237;45.586;13.782;2023-07-09T07:54:53;7.72;;;5.72;;
45490;SDS011;31237;45.586;13.782;2023-07-09T07:57:19;9.05;;;5.93;;
45490;SDS011;31237;45.586;13.782;2023-07-09T07:59:46;9.57;;;6.13;;
45490;SDS011;31237;45.586;13.782;2023-07-09T08:02:13;12.35;;;6.07;;
45490;SDS011;31237;45.586;13.782;2023-07-09T08:04:42;8.30;;;5.97;;
45490;SDS011;31237;45.586;13.782;2023-07-09T08:07:08;7.00;;;5.00;;
45490;SDS011;31237;45.586;13.782;2023-07-09T08:09:35;7.15;;;5.00;;
45490;SDS011;31237;45.586;13.782;2023-07-09T08:12:01;9.13;;;5.63;;
45490;SDS011;31237;45.586;13.782;2023-07-09T08:14:35;8.38;;;5.55;;
45490;SDS011;31237;45.586;13.782;2023-07-09T08:17:01;7.28;;;5.18;;
45490;SDS011;31237;45.586;13.782;2023-07-09T08:19:27;9.38;;;5.65;;
45490;SDS011;31237;45.586;13.782;2023-07-09T08:21:53;7.85;;;5.28;;
45490;SDS011;31237;45.586;13.782;2023-07-09T08:24:19;11.57;;;5.63;;
45490;SDS011;31237;45.586;13.782;2023-07-09T08:26:45;8.25;;;5.22;;
45490;SDS011;31237;45.586;13.782;2023-07-09T08:29:10;7.85;;;5.50;;
45490;SDS011;31237;45.586;13.782;2023-07-09T08:31:36;9.02;;;5.55;;
45490;SDS011;31237;45.586;13.782;2023-07-09T08:34:04;9.00;;;5.43;;
45490;SDS011;31237;45.586;13.782;2023-07-09T08:36:32;8.68;;;5.78;;
45490;SDS011;31237;45.586;13.782;2023-07-09T08:38:58;6.78;;;5.25;;
45490;SDS011;31237;45.586;13.782;2023-07-09T08:41:45;7.03;;;5.05;;
45490;SDS011;31237;45.586;13.782;2023-07-09T08:45:00;7.55;;;5.72;;
45490;SDS011;31237;45.586;13.782;2023-07-09T08:47:40;8.17;;;5.37;;
45490;SDS011;31237;45.586;13.782;2023-07-09T08:50:12;9.23;;;5.35;;
45490;SDS011;31237;45.586;13.782;2023-07-09T08:55:11;7.47;;;4.90;;
45490;SDS011;31237;45.586;13.782;2023-07-09T08:57:47;7.53;;;5.25;;
45490;SDS011;31237;45.586;13.782;2023-07-09T09:00:40;7.80;;;5.32;;
45490;SDS011;31237;45.586;13.782;2023-07-09T09:06:14;9.63;;;4.60;;
45490;SDS011;31237;45.586;13.782;2023-07-09T09:09:00;8.13;;;5.60;;
45490;SDS011;31237;45.586;13.782;2023-07-09T09:11:31;8.13;;;5.28;;
45490;SDS011;31237;45.586;13.782;2023-07-09T09:14:05;7.35;;;4.97;;
45490;SDS011;31237;45.586;13.782;2023-07-09T09:16:42;7.97;;;4.78;;
45490;SDS011;31237;45.586;13.782;2023-07-09T09:19:22;8.30;;;4.95;;
45490;SDS011;31237;45.586;13.782;2023-07-09T09:22:11;8.00;;;5.35;;
45490;SDS011;31237;45.586;13.782;2023-07-09T09:27:36;7.38;;;5.20;;
45490;SDS011;31237;45.586;13.782;2023-07-09T09:30:03;6.68;;;4.57;;
45490;SDS011;31237;45.586;13.782;2023-07-09T09:32:39;6.85;;;4.75;;
45490;SDS011;31237;45.586;13.782;2023-07-09T09:35:16;7.75;;;4.63;;
45490;SDS011;31237;45.586;13.782;2023-07-09T09:37:51;6.57;;;4.63;;
45490;SDS011;31237;45.586;13.782;2023-07-09T09:40:18;6.45;;;4.55;;
45490;SDS011;31237;45.586;13.782;2023-07-09T09:42:52;8.60;;;5.05;;
45490;SDS011;31237;45.586;13.782;2023-07-09T09:45:20;7.22;;;5.00;;
45490;SDS011;31237;45.586;13.782;2023-07-09T09:47:51;7.22;;;5.07;;
45490;SDS011;31237;45.586;13.782;2023-07-09T09:50:18;7.57;;;4.88;;
45490;SDS011;31237;45.586;13.782;2023-07-09T09:52:47;7.47;;;5.38;;
45490;SDS011;31237;45.586;13.782;2023-07-09T09:55:27;6.30;;;4.10;;
45490;SDS011;31237;45.586;13.782;2023-07-09T09:57:55;7.55;;;4.80;;
45490;SDS011;31237;45.586;13.782;2023-07-09T10:00:26;6.88;;;4.80;;
45490;SDS011;31237;45.586;13.782;2023-07-09T10:03:01;7.75;;;5.00;;
45490;SDS011;31237;45.586;13.782;2023-07-09T10:05:40;7.45;;;4.50;;
45490;SDS011;31237;45.586;13.782;2023-07-09T10:08:13;5.90;;;4.10;;
45490;SDS011;31237;45.586;13.782;2023-07-09T10:10:46;7.03;;;4.65;;
45490;SDS011;31237;45.586;13.782;2023-07-09T10:13:20;6.78;;;4.40;;
45490;SDS011;31237;45.586;13.782;2023-07-09T10:21:51;7.03;;;4.38;;
45490;SDS011;31237;45.586;13.782;2023-07-09T10:27:09;6.25;;;4.30;;
45490;SDS011;31237;45.586;13.782;2023-07-09T10:35:41;6.75;;;4.13;;
45490;SDS011;31237;45.586;13.782;2023-07-09T10:38:36;6.65;;;4.00;;
45490;SDS011;31237;45.586;13.782;2023-07-09T10:41:12;5.53;;;3.83;;
45490;SDS011;31237;45.586;13.782;2023-07-09T10:43:49;6.93;;;4.10;;
45490;SDS011;31237;45.586;13.782;2023-07-09T10:46:25;6.45;;;3.90;;
45490;SDS011;31237;45.586;13.782;2023-07-09T10:48:54;5.45;;;3.80;;
45490;SDS011;31237;45.586;13.782;2023-07-09T10:51:23;6.57;;;3.53;;
45490;SDS011;31237;45.586;13.782;2023-07-09T10:56:39;5.75;;;3.75;;
45490;SDS011;31237;45.586;13.782;2023-07-09T11:01:33;7.45;;;4.65;;
45490;SDS011;31237;45.586;13.782;2023-07-09T11:04:05;5.40;;;3.60;;
45490;SDS011;31237;45.586;13.782;2023-07-09T11:06:37;6.93;;;4.10;;
45490;SDS011;31237;45.586;13.782;2023-07-09T11:09:26;6.40;;;3.70;;
45490;SDS011;31237;45.586;13.782;2023-07-09T11:12:09;6.82;;;4.38;;
45490;SDS011;31237;45.586;13.782;2023-07-09T11:14:40;8.38;;;4.40;;
45490;SDS011;31237;45.586;13.782;2023-07-09T11:17:15;7.07;;;4.10;;
45490;SDS011;31237;45.586;13.782;2023-07-09T11:19:44;7.75;;;4.78;;
45490;SDS011;31237;45.586;13.782;2023-07-09T11:22:20;6.68;;;4.57;;
45490;SDS011;31237;45.586;13.782;2023-07-09T11:24:51;7.70;;;4.45;;
45490;SDS011;31237;45.586;13.782;2023-07-09T11:27:29;8.93;;;4.43;;
45490;SDS011;31237;45.586;13.782;2023-07-09T11:29:59;8.35;;;4.60;;
45490;SDS011;31237;45.586;13.782;2023-07-09T11:32:27;8.38;;;4.88;;
45490;SDS011;31237;45.586;13.782;2023-07-09T11:34:54;6.43;;;4.80;;
45490;SDS011;31237;45.586;13.782;2023-07-09T11:37:30;7.15;;;5.05;;
45490;SDS011;31237;45.586;13.782;2023-07-09T11:39:55;7.95;;;5.15;;
45490;SDS011;31237;45.586;13.782;2023-07-09T11:42:49;6.18;;;4.95;;
45490;SDS011;31237;45.586;13.782;2023-07-09T11:45:22;8.00;;;5.53;;
45490;SDS011;31237;45.586;13.782;2023-07-09T11:50:31;6.32;;;4.88;;
45490;SDS011;31237;45.586;13.782;2023-07-09T11:55:44;8.52;;;5.38;;
45490;SDS011;31237;45.586;13.782;2023-07-09T11:58:12;6.22;;;4.10;;
45490;SDS011;31237;45.586;13.782;2023-07-09T12:00:55;5.65;;;3.60;;
45490;SDS011;31237;45.586;13.782;2023-07-09T12:03:23;7.30;;;4.72;;
45490;SDS011;31237;45.586;13.782;2023-07-09T12:05:50;7.65;;;5.03;;
45490;SDS011;31237;45.586;13.782;2023-07-09T12:08:18;5.60;;;4.38;;
45490;SDS011;31237;45.586;13.782;2023-07-09T12:10:48;5.13;;;3.75;;
45490;SDS011;31237;45.586;13.782;2023-07-09T12:13:13;5.45;;;3.55;;
45490;SDS011;31237;45.586;13.782;2023-07-09T12:15:39;6.93;;;4.15;;
45490;SDS011;31237;45.586;13.782;2023-07-09T12:18:12;7.95;;;4.13;;
45490;SDS011;31237;45.586;13.782;2023-07-09T12:20:40;6.90;;;3.70;;
45490;SDS011;31237;45.586;13.782;2023-07-09T12:23:49;5.07;;;3.58;;
45490;SDS011;31237;45.586;13.782;2023-07-09T12:26:00;5.90;;;4.53;;
45490;SDS011;31237;45.586;13.782;2023-07-09T12:28:28;5.45;;;3.72;;
45490;SDS011;31237;45.586;13.782;2023-07-09T12:30:54;5.40;;;3.45;;
45490;SDS011;31237;45.586;13.782;2023-07-09T12:33:22;5.05;;;3.47;;
45490;SDS011;31237;45.586;13.782;2023-07-09T12:35:55;5.32;;;3.40;;
45490;SDS011;31237;45.586;13.782;2023-07-09T12:38:23;5.32;;;3.60;;
45490;SDS011;31237;45.586;13.782;2023-07-09T12:40:51;6.13;;;3.60;;
45490;SDS011;31237;45.586;13.782;2023-07-09T12:43:26;4.88;;;3.50;;
45490;SDS011;31237;45.586;13.782;2023-07-09T12:45:54;5.90;;;3.63;;
45490;SDS011;31237;45.586;13.782;2023-07-09T12:48:23;5.22;;;3.55;;
45490;SDS011;31237;45.586;13.782;2023-07-09T12:50:53;6.00;;;3.10;;
45490;SDS011;31237;45.586;13.782;2023-07-09T12:53:25;5.53;;;3.70;;
45490;SDS011;31237;45.586;13.782;2023-07-09T12:55:54;4.90;;;3.38;;
45490;SDS011;31237;45.586;13.782;2023-07-09T12:58:24;7.25;;;3.85;;
45490;SDS011;31237;45.586;13.782;2023-07-09T13:00:53;5.75;;;3.42;;
45490;SDS011;31237;45.586;13.782;2023-07-09T13:03:21;6.30;;;3.42;;
45490;SDS011;31237;45.586;13.782;2023-07-09T13:05:54;6.60;;;3.88;;
45490;SDS011;31237;45.586;13.782;2023-07-09T13:08:25;5.70;;;3.72;;
45490;SDS011;31237;45.586;13.782;2023-07-09T13:10:53;3.97;;;2.95;;
45490;SDS011;31237;45.586;13.782;2023-07-09T13:13:20;5.45;;;3.50;;
45490;SDS011;31237;45.586;13.782;2023-07-09T13:15:48;5.70;;;3.70;;
45490;SDS011;31237;45.586;13.782;2023-07-09T13:18:27;5.43;;;3.67;;
45490;SDS011;31237;45.586;13.782;2023-07-09T13:20:54;5.05;;;3.63;;
45490;SDS011;31237;45.586;13.782;2023-07-09T13:23:22;5.22;;;3.38;;
45490;SDS011;31237;45.586;13.782;2023-07-09T13:25:53;5.22;;;3.38;;
45490;SDS011;31237;45.586;13.782;2023-07-09T13:28:22;6.03;;;3.38;;
45490;SDS011;31237;45.586;13.782;2023-07-09T13:30:53;5.53;;;2.90;;
45490;SDS011;31237;45.586;13.782;2023-07-09T13:33:34;5.50;;;3.08;;
45490;SDS011;31237;45.586;13.782;2023-07-09T13:35:59;6.72;;;3.50;;
45490;SDS011;31237;45.586;13.782;2023-07-09T13:38:25;5.28;;;3.22;;
45490;SDS011;31237;45.586;13.782;2023-07-09T13:40:54;6.07;;;3.20;;
45490;SDS011;31237;45.586;13.782;2023-07-09T13:43:25;6.68;;;2.95;;
45490;SDS011;31237;45.586;13.782;2023-07-09T13:45:56;4.75;;;3.05;;
45490;SDS011;31237;45.586;13.782;2023-07-09T13:48:22;6.30;;;3.40;;
45490;SDS011;31237;45.586;13.782;2023-07-09T13:50:50;4.45;;;3.33;;
45490;SDS011;31237;45.586;13.782;2023-07-09T13:53:19;5.07;;;3.42;;
45490;SDS011;31237;45.586;13.782;2023-07-09T13:55:47;6.28;;;3.47;;
45490;SDS011;31237;45.586;13.782;2023-07-09T13:58:15;4.30;;;3.35;;
45490;SDS011;31237;45.586;13.782;2023-07-09T14:00:43;9.60;;;3.70;;
45490;SDS011;31237;45.586;13.782;2023-07-09T14:03:15;4.80;;;3.10;;
45490;SDS011;31237;45.586;13.782;2023-07-09T14:05:45;6.32;;;3.10;;
45490;SDS011;31237;45.586;13.782;2023-07-09T14:08:11;6.28;;;3.40;;
45490;SDS011;31237;45.586;13.782;2023-07-09T14:10:37;6.43;;;4.38;;
45490;SDS011;31237;45.586;13.782;2023-07-09T14:13:03;5.45;;;3.72;;
45490;SDS011;31237;45.586;13.782;2023-07-09T14:15:29;5.47;;;3.72;;
45490;SDS011;31237;45.586;13.782;2023-07-09T14:17:55;5.57;;;3.83;;
45490;SDS011;31237;45.586;13.782;2023-07-09T14:20:21;5.00;;;3.30;;
45490;SDS011;31237;45.586;13.782;2023-07-09T14:22:48;6.13;;;3.80;;
45490;SDS011;31237;45.586;13.782;2023-07-09T14:25:19;5.40;;;3.47;;
45490;SDS011;31237;45.586;13.782;2023-07-09T14:27:48;5.00;;;3.03;;
45490;SDS011;31237;45.586;13.782;2023-07-09T14:30:19;4.18;;;2.90;;
45490;SDS011;31237;45.586;13.782;2023-07-09T14:32:48;5.13;;;3.50;;
45490;SDS011;31237;45.586;13.782;2023-07-09T14:35:16;5.03;;;2.95;;
45490;SDS011;31237;45.586;13.782;2023-07-09T14:37:44;5.25;;;3.38;;
45490;SDS011;31237;45.586;13.782;2023-07-09T14:40:12;5.93;;;3.45;;
45490;SDS011;31237;45.586;13.782;2023-07-09T14:42:40;6.20;;;3.63;;
45490;SDS011;31237;45.586;13.782;2023-07-09T14:45:15;5.65;;;3.58;;
45490;SDS011;31237;45.586;13.782;2023-07-09T14:47:41;5.13;;;3.40;;
45490;SDS011;31237;45.586;13.782;2023-07-09T14:50:08;5.97;;;3.95;;
45490;SDS011;31237;45.586;13.782;2023-07-09T14:52:34;5.75;;;3.40;;
45490;SDS011;31237;45.586;13.782;2023-07-09T14:55:00;5.20;;;3.22;;
45490;SDS011;31237;45.586;13.782;2023-07-09T14:57:27;7.07;;;3.40;;
45490;SDS011;31237;45.586;13.782;2023-07-09T14:59:55;5.32;;;3.67;;
45490;SDS011;31237;45.586;13.782;2023-07-09T15:02:35;5.80;;;3.65;;
45490;SDS011;31237;45.586;13.782;2023-07-09T15:05:03;7.13;;;3.30;;
45490;SDS011;31237;45.586;13.782;2023-07-09T15:07:32;7.07;;;3.45;;
45490;SDS011;31237;45.586;13.782;2023-07-09T15:10:01;5.38;;;3.22;;
45490;SDS011;31237;45.586;13.782;2023-07-09T15:12:31;5.00;;;3.10;;
45490;SDS011;31237;45.586;13.782;2023-07-09T15:15:06;4.88;;;3.17;;
45490;SDS011;31237;45.586;13.782;2023-07-09T15:17:49;6.45;;;3.20;;
45490;SDS011;31237;45.586;13.782;2023-07-09T15:20:19;5.60;;;3.50;;